sensor_id;sensor_type;location;lat;lon;timestamp;pressure;altitude;pressure_sealevel;temperature;humidity
19736;BME280;32064;49.310;8.646;2022-12-20T00:01:08;101102.66;;;8.00;73.79
19736;BME280;32064;49.310;8.646;2022-12-20T00:03:33;101103.25;;;7.87;75.27
19736;BME280;32064;49.310;8.646;2022-12-20T00:05:58;101080.06;;;7.97;74.34
19736;BME280;32064;49.310;8.646;2022-12-20T00:08:24;101083.31;;;8.02;74.32
19736;BME280;32064;49.310;8.646;2022-12-20T00:10:49;101066.66;;;8.03;74.19
19736;BME280;32064;49.310;8.646;2022-12-20T00:13:15;101064.00;;;8.05;74.73
19736;BME280;32064;49.310;8.646;2022-12-20T00:15:40;101062.00;;;8.10;74.31
19736;BME280;32064;49.310;8.646;2022-12-20T00:18:06;101053.13;;;8.13;74.72
19736;BME280;32064;49.310;8.646;2022-12-20T00:20:31;101051.22;;;8.16;74.07
19736;BME280;32064;49.310;8.646;2022-12-20T00:22:56;101045.72;;;8.21;74.34
19736;BME280;32064;49.310;8.646;2022-12-20T00:25:22;101046.34;;;8.26;73.89
19736;BME280;32064;49.310;8.646;2022-12-20T00:27:49;101034.09;;;8.26;74.04
19736;BME280;32064;49.310;8.646;2022-12-20T00:30:14;101044.34;;;8.31;73.46
19736;BME280;32064;49.310;8.646;2022-12-20T00:32:40;101046.50;;;8.23;73.40
19736;BME280;32064;49.310;8.646;2022-12-20T00:35:06;101051.53;;;8.27;73.50
19736;BME280;32064;49.310;8.646;2022-12-20T00:37:32;101050.97;;;8.21;73.84
19736;BME280;32064;49.310;8.646;2022-12-20T00:39:57;101052.06;;;8.17;74.48
19736;BME280;32064;49.310;8.646;2022-12-20T00:42:22;101046.75;;;8.18;73.85
19736;BME280;32064;49.310;8.646;2022-12-20T00:44:48;101048.22;;;8.24;74.00
19736;BME280;32064;49.310;8.646;2022-12-20T00:47:13;101037.09;;;8.19;74.85
19736;BME280;32064;49.310;8.646;2022-12-20T00:49:39;101036.84;;;8.23;73.70
19736;BME280;32064;49.310;8.646;2022-12-20T00:52:05;101030.94;;;8.20;73.88
19736;BME280;32064;49.310;8.646;2022-12-20T00:54:30;101028.63;;;8.31;73.87
19736;BME280;32064;49.310;8.646;2022-12-20T00:56:56;101033.25;;;8.26;73.60
19736;BME280;32064;49.310;8.646;2022-12-20T00:59:21;101028.84;;;8.26;73.92
19736;BME280;32064;49.310;8.646;2022-12-20T01:01:47;101026.78;;;8.33;73.46
19736;BME280;32064;49.310;8.646;2022-12-20T01:04:13;101036.56;;;8.29;73.73
19736;BME280;32064;49.310;8.646;2022-12-20T01:06:38;101035.19;;;8.40;72.97
19736;BME280;32064;49.310;8.646;2022-12-20T01:09:04;101029.16;;;8.38;74.05
19736;BME280;32064;49.310;8.646;2022-12-20T01:11:35;101021.38;;;8.36;73.30
19736;BME280;32064;49.310;8.646;2022-12-20T01:14:03;101027.78;;;8.30;74.07
19736;BME280;32064;49.310;8.646;2022-12-20T01:16:35;101030.03;;;8.38;73.97
19736;BME280;32064;49.310;8.646;2022-12-20T01:19:01;101024.41;;;8.46;73.97
19736;BME280;32064;49.310;8.646;2022-12-20T01:21:26;101028.81;;;8.45;74.39
19736;BME280;32064;49.310;8.646;2022-12-20T01:23:52;101018.84;;;8.52;73.34
19736;BME280;32064;49.310;8.646;2022-12-20T01:26:20;101020.72;;;8.50;74.40
19736;BME280;32064;49.310;8.646;2022-12-20T01:28:48;101024.50;;;8.44;74.67
19736;BME280;32064;49.310;8.646;2022-12-20T01:31:17;101020.94;;;8.45;74.44
19736;BME280;32064;49.310;8.646;2022-12-20T01:33:44;101012.75;;;8.51;74.01
19736;BME280;32064;49.310;8.646;2022-12-20T01:36:13;101010.69;;;8.58;74.18
19736;BME280;32064;49.310;8.646;2022-12-20T01:38:39;101006.94;;;8.62;74.13
19736;BME280;32064;49.310;8.646;2022-12-20T01:41:05;101011.59;;;8.57;74.50
19736;BME280;32064;49.310;8.646;2022-12-20T01:43:56;101016.44;;;8.65;74.01
19736;BME280;32064;49.310;8.646;2022-12-20T01:46:24;101013.50;;;8.71;73.78
19736;BME280;32064;49.310;8.646;2022-12-20T01:48:55;101016.28;;;8.68;73.95
19736;BME280;32064;49.310;8.646;2022-12-20T01:51:22;101010.88;;;8.71;74.34
19736;BME280;32064;49.310;8.646;2022-12-20T01:53:51;101021.00;;;8.61;74.46
19736;BME280;32064;49.310;8.646;2022-12-20T01:56:18;101024.78;;;8.56;75.21
19736;BME280;32064;49.310;8.646;2022-12-20T01:58:45;101011.03;;;8.68;74.92
19736;BME280;32064;49.310;8.646;2022-12-20T02:01:13;101014.59;;;8.67;75.52
19736;BME280;32064;49.310;8.646;2022-12-20T02:03:40;101013.97;;;8.62;75.42
19736;BME280;32064;49.310;8.646;2022-12-20T02:06:15;101006.63;;;8.68;75.88
19736;BME280;32064;49.310;8.646;2022-12-20T02:08:42;101010.50;;;8.61;76.15
19736;BME280;32064;49.310;8.646;2022-12-20T02:17:24;101008.06;;;8.58;76.98
19736;BME280;32064;49.310;8.646;2022-12-20T02:20:06;100990.38;;;8.62;76.72
19736;BME280;32064;49.310;8.646;2022-12-20T02:22:59;100980.22;;;8.56;77.96
19736;BME280;32064;49.310;8.646;2022-12-20T02:29:01;100964.03;;;8.47;77.48
19736;BME280;32064;49.310;8.646;2022-12-20T02:31:37;100953.16;;;8.55;77.50
19736;BME280;32064;49.310;8.646;2022-12-20T02:34:05;100953.81;;;8.59;77.24
19736;BME280;32064;49.310;8.646;2022-12-20T02:36:31;100952.31;;;8.70;76.94
19736;BME280;32064;49.310;8.646;2022-12-20T02:38:56;100943.78;;;8.67;77.42
19736;BME280;32064;49.310;8.646;2022-12-20T02:41:26;100933.03;;;8.71;77.25
19736;BME280;32064;49.310;8.646;2022-12-20T02:43:59;100932.28;;;8.69;77.49
19736;BME280;32064;49.310;8.646;2022-12-20T02:46:46;100926.03;;;8.72;78.01
19736;BME280;32064;49.310;8.646;2022-12-20T02:49:16;100918.00;;;8.75;77.75
19736;BME280;32064;49.310;8.646;2022-12-20T02:51:46;100918.06;;;8.73;77.81
19736;BME280;32064;49.310;8.646;2022-12-20T02:54:14;100920.34;;;8.80;77.15
19736;BME280;32064;49.310;8.646;2022-12-20T02:59:20;100909.25;;;8.74;77.68
19736;BME280;32064;49.310;8.646;2022-12-20T03:01:50;100913.31;;;8.80;78.13
19736;BME280;32064;49.310;8.646;2022-12-20T03:04:18;100919.16;;;8.85;76.99
19736;BME280;32064;49.310;8.646;2022-12-20T03:07:01;100917.66;;;8.81;77.11
19736;BME280;32064;49.310;8.646;2022-12-20T03:09:27;100925.78;;;8.92;76.78
19736;BME280;32064;49.310;8.646;2022-12-20T03:11:54;100931.88;;;8.93;76.79
19736;BME280;32064;49.310;8.646;2022-12-20T03:14:20;100924.00;;;8.93;77.03
19736;BME280;32064;49.310;8.646;2022-12-20T03:16:46;100921.53;;;8.90;76.70
19736;BME280;32064;49.310;8.646;2022-12-20T03:19:11;100918.09;;;8.89;76.81
19736;BME280;32064;49.310;8.646;2022-12-20T03:21:37;100921.03;;;8.83;77.58
19736;BME280;32064;49.310;8.646;2022-12-20T03:24:02;100922.63;;;8.86;77.48
19736;BME280;32064;49.310;8.646;2022-12-20T03:26:27;100932.88;;;8.90;77.00
19736;BME280;32064;49.310;8.646;2022-12-20T03:28:53;100939.47;;;8.82;77.38
19736;BME280;32064;49.310;8.646;2022-12-20T03:31:19;100945.41;;;8.85;77.65
19736;BME280;32064;49.310;8.646;2022-12-20T03:33:44;100946.94;;;8.89;76.59
19736;BME280;32064;49.310;8.646;2022-12-20T03:36:10;100948.13;;;8.84;77.67
19736;BME280;32064;49.310;8.646;2022-12-20T03:38:35;100941.88;;;8.86;76.84
19736;BME280;32064;49.310;8.646;2022-12-20T03:41:00;100942.03;;;8.83;77.74
19736;BME280;32064;49.310;8.646;2022-12-20T03:43:26;100931.28;;;8.88;77.24
19736;BME280;32064;49.310;8.646;2022-12-20T03:45:51;100938.38;;;8.86;77.77
19736;BME280;32064;49.310;8.646;2022-12-20T03:48:16;100934.16;;;8.83;77.50
19736;BME280;32064;49.310;8.646;2022-12-20T03:50:42;100927.97;;;8.84;77.26
19736;BME280;32064;49.310;8.646;2022-12-20T03:53:07;100917.56;;;8.83;76.97
19736;BME280;32064;49.310;8.646;2022-12-20T03:55:33;100917.22;;;8.89;77.13
19736;BME280;32064;49.310;8.646;2022-12-20T03:57:58;100915.81;;;8.83;77.31
19736;BME280;32064;49.310;8.646;2022-12-20T04:00:23;100913.41;;;8.79;77.16
19736;BME280;32064;49.310;8.646;2022-12-20T04:02:49;100906.31;;;8.81;77.79
19736;BME280;32064;49.310;8.646;2022-12-20T04:05:14;100908.44;;;8.90;77.76
19736;BME280;32064;49.310;8.646;2022-12-20T04:07:41;100897.66;;;8.94;77.18
19736;BME280;32064;49.310;8.646;2022-12-20T04:10:06;100905.69;;;8.91;77.67
19736;BME280;32064;49.310;8.646;2022-12-20T04:12:32;100900.38;;;8.93;77.24
19736;BME280;32064;49.310;8.646;2022-12-20T04:14:57;100896.66;;;8.81;78.15
19736;BME280;32064;49.310;8.646;2022-12-20T04:17:23;100903.84;;;8.93;77.02
19736;BME280;32064;49.310;8.646;2022-12-20T04:19:48;100908.25;;;8.93;77.50
19736;BME280;32064;49.310;8.646;2022-12-20T04:22:13;100896.91;;;8.92;76.80
19736;BME280;32064;49.310;8.646;2022-12-20T04:24:39;100888.03;;;8.95;76.32
19736;BME280;32064;49.310;8.646;2022-12-20T04:27:04;100891.41;;;8.97;76.62
19736;BME280;32064;49.310;8.646;2022-12-20T04:29:30;100876.78;;;8.93;77.24
19736;BME280;32064;49.310;8.646;2022-12-20T04:31:55;100868.88;;;8.77;77.42
19736;BME280;32064;49.310;8.646;2022-12-20T04:34:21;100868.31;;;8.88;77.61
19736;BME280;32064;49.310;8.646;2022-12-20T04:36:46;100863.66;;;8.93;76.50
19736;BME280;32064;49.310;8.646;2022-12-20T04:39:12;100868.13;;;8.91;77.26
19736;BME280;32064;49.310;8.646;2022-12-20T04:41:37;100871.41;;;8.94;77.55
19736;BME280;32064;49.310;8.646;2022-12-20T04:44:03;100865.34;;;8.94;76.64
19736;BME280;32064;49.310;8.646;2022-12-20T04:46:28;100871.00;;;9.02;77.16
19736;BME280;32064;49.310;8.646;2022-12-20T04:48:53;100873.28;;;9.08;76.69
19736;BME280;32064;49.310;8.646;2022-12-20T04:51:19;100871.41;;;9.10;77.04
19736;BME280;32064;49.310;8.646;2022-12-20T04:53:45;100869.81;;;9.08;77.07
19736;BME280;32064;49.310;8.646;2022-12-20T04:56:25;100869.38;;;9.15;76.50
19736;BME280;32064;49.310;8.646;2022-12-20T04:58:53;100857.28;;;9.13;77.37
19736;BME280;32064;49.310;8.646;2022-12-20T05:01:19;100852.69;;;9.16;76.42
19736;BME280;32064;49.310;8.646;2022-12-20T05:03:46;100849.81;;;9.21;76.85
19736;BME280;32064;49.310;8.646;2022-12-20T05:06:11;100848.69;;;9.25;76.44
19736;BME280;32064;49.310;8.646;2022-12-20T05:08:37;100851.31;;;9.25;75.88
19736;BME280;32064;49.310;8.646;2022-12-20T05:11:03;100856.50;;;9.27;75.93
19736;BME280;32064;49.310;8.646;2022-12-20T05:13:29;100859.72;;;9.32;75.52
19736;BME280;32064;49.310;8.646;2022-12-20T05:15:56;100865.88;;;9.31;75.48
19736;BME280;32064;49.310;8.646;2022-12-20T05:18:22;100869.28;;;9.33;75.89
19736;BME280;32064;49.310;8.646;2022-12-20T05:20:48;100871.06;;;9.32;75.90
19736;BME280;32064;49.310;8.646;2022-12-20T05:23:34;100874.69;;;9.30;76.36
19736;BME280;32064;49.310;8.646;2022-12-20T05:26:18;100883.41;;;9.30;75.45
19736;BME280;32064;49.310;8.646;2022-12-20T05:28:43;100875.72;;;9.27;75.77
19736;BME280;32064;49.310;8.646;2022-12-20T05:31:09;100873.75;;;9.31;75.90
19736;BME280;32064;49.310;8.646;2022-12-20T05:33:34;100867.84;;;9.27;76.19
19736;BME280;32064;49.310;8.646;2022-12-20T05:36:00;100861.34;;;9.18;76.65
19736;BME280;32064;49.310;8.646;2022-12-20T05:38:25;100857.59;;;9.22;76.24
19736;BME280;32064;49.310;8.646;2022-12-20T05:40:51;100862.78;;;9.24;75.86
19736;BME280;32064;49.310;8.646;2022-12-20T05:43:17;100865.56;;;9.21;75.95
19736;BME280;32064;49.310;8.646;2022-12-20T05:45:50;100868.03;;;9.24;75.32
19736;BME280;32064;49.310;8.646;2022-12-20T05:48:17;100880.97;;;9.27;75.23
19736;BME280;32064;49.310;8.646;2022-12-20T05:50:44;100880.13;;;9.27;75.44
19736;BME280;32064;49.310;8.646;2022-12-20T05:53:14;100872.25;;;9.27;75.88
19736;BME280;32064;49.310;8.646;2022-12-20T05:55:50;100861.34;;;9.18;75.66
19736;BME280;32064;49.310;8.646;2022-12-20T05:58:16;100857.59;;;9.22;75.21
19736;BME280;32064;49.310;8.646;2022-12-20T06:00:43;100862.19;;;9.19;75.81
19736;BME280;32064;49.310;8.646;2022-12-20T06:03:10;100864.13;;;9.15;75.40
19736;BME280;32064;49.310;8.646;2022-12-20T06:05:39;100868.44;;;9.16;75.71
19736;BME280;32064;49.310;8.646;2022-12-20T06:08:05;100866.66;;;9.17;75.24
19736;BME280;32064;49.310;8.646;2022-12-20T06:10:31;100874.72;;;9.14;75.44
19736;BME280;32064;49.310;8.646;2022-12-20T06:12:56;100872.97;;;9.14;76.18
19736;BME280;32064;49.310;8.646;2022-12-20T06:15:22;100873.81;;;9.15;75.32
19736;BME280;32064;49.310;8.646;2022-12-20T06:17:47;100866.53;;;9.04;75.66
19736;BME280;32064;49.310;8.646;2022-12-20T06:20:13;100867.13;;;9.09;75.84
19736;BME280;32064;49.310;8.646;2022-12-20T06:22:38;100872.38;;;9.09;75.44
19736;BME280;32064;49.310;8.646;2022-12-20T06:25:04;100867.13;;;9.09;75.77
19736;BME280;32064;49.310;8.646;2022-12-20T06:27:31;100866.41;;;9.06;74.86
19736;BME280;32064;49.310;8.646;2022-12-20T06:29:56;100864.97;;;9.00;75.83
19736;BME280;32064;49.310;8.646;2022-12-20T06:32:22;100851.53;;;8.90;76.68
19736;BME280;32064;49.310;8.646;2022-12-20T06:34:47;100848.25;;;8.87;75.75
19736;BME280;32064;49.310;8.646;2022-12-20T06:37:12;100849.00;;;8.89;76.08
19736;BME280;32064;49.310;8.646;2022-12-20T06:39:38;100845.88;;;8.82;76.20
19736;BME280;32064;49.310;8.646;2022-12-20T06:42:04;100846.53;;;8.86;76.57
19736;BME280;32064;49.310;8.646;2022-12-20T06:44:29;100857.03;;;8.86;76.02
19736;BME280;32064;49.310;8.646;2022-12-20T06:46:55;100865.00;;;8.84;76.11
19736;BME280;32064;49.310;8.646;2022-12-20T06:49:21;100857.81;;;8.88;75.73
19736;BME280;32064;49.310;8.646;2022-12-20T06:51:47;100849.44;;;8.81;76.07
19736;BME280;32064;49.310;8.646;2022-12-20T06:54:12;100847.06;;;8.76;76.12
19736;BME280;32064;49.310;8.646;2022-12-20T06:56:38;100845.97;;;8.81;76.20
19736;BME280;32064;49.310;8.646;2022-12-20T06:59:04;100835.13;;;8.71;76.02
19736;BME280;32064;49.310;8.646;2022-12-20T07:01:30;100830.72;;;8.71;76.08
19736;BME280;32064;49.310;8.646;2022-12-20T07:03:55;100827.19;;;8.72;76.63
19736;BME280;32064;49.310;8.646;2022-12-20T07:06:20;100832.44;;;8.72;76.63
19736;BME280;32064;49.310;8.646;2022-12-20T07:08:46;100837.34;;;8.79;76.58
19736;BME280;32064;49.310;8.646;2022-12-20T07:11:11;100831.50;;;8.73;76.67
19736;BME280;32064;49.310;8.646;2022-12-20T07:13:37;100825.31;;;8.74;77.03
19736;BME280;32064;49.310;8.646;2022-12-20T07:16:03;100824.13;;;8.80;76.33
19736;BME280;32064;49.310;8.646;2022-12-20T07:18:28;100818.97;;;8.79;76.60
19736;BME280;32064;49.310;8.646;2022-12-20T07:20:58;100810.19;;;8.64;77.22
19736;BME280;32064;49.310;8.646;2022-12-20T07:23:24;100807.72;;;8.76;77.00
19736;BME280;32064;49.310;8.646;2022-12-20T07:25:57;100814.66;;;8.62;77.69
19736;BME280;32064;49.310;8.646;2022-12-20T07:28:23;100830.31;;;8.79;77.22
19736;BME280;32064;49.310;8.646;2022-12-20T07:30:49;100830.97;;;8.83;77.45
19736;BME280;32064;49.310;8.646;2022-12-20T07:33:15;100831.69;;;8.86;77.11
19736;BME280;32064;49.310;8.646;2022-12-20T07:35:40;100836.81;;;8.88;76.99
19736;BME280;32064;49.310;8.646;2022-12-20T07:38:06;100834.28;;;8.86;77.15
19736;BME280;32064;49.310;8.646;2022-12-20T07:40:31;100832.69;;;8.84;77.02
19736;BME280;32064;49.310;8.646;2022-12-20T07:42:57;100826.59;;;8.83;76.43
19736;BME280;32064;49.310;8.646;2022-12-20T07:45:22;100833.25;;;8.89;76.47
19736;BME280;32064;49.310;8.646;2022-12-20T07:47:48;100821.19;;;8.86;76.75
19736;BME280;32064;49.310;8.646;2022-12-20T07:50:13;100829.13;;;8.85;77.14
19736;BME280;32064;49.310;8.646;2022-12-20T07:52:40;100839.19;;;8.92;76.90
19736;BME280;32064;49.310;8.646;2022-12-20T07:55:08;100838.19;;;8.95;76.89
19736;BME280;32064;49.310;8.646;2022-12-20T07:57:44;100836.41;;;8.95;77.06
19736;BME280;32064;49.310;8.646;2022-12-20T08:00:12;100831.03;;;8.97;76.71
19736;BME280;32064;49.310;8.646;2022-12-20T08:02:42;100824.78;;;8.99;77.02
19736;BME280;32064;49.310;8.646;2022-12-20T08:05:11;100815.06;;;9.02;76.96
19736;BME280;32064;49.310;8.646;2022-12-20T08:07:38;100822.16;;;8.99;77.06
19736;BME280;32064;49.310;8.646;2022-12-20T08:10:06;100811.66;;;8.99;77.39
19736;BME280;32064;49.310;8.646;2022-12-20T08:12:33;100805.69;;;8.97;77.34
19736;BME280;32064;49.310;8.646;2022-12-20T08:14:58;100801.34;;;8.96;77.50
19736;BME280;32064;49.310;8.646;2022-12-20T08:17:24;100813.09;;;9.05;76.76
19736;BME280;32064;49.310;8.646;2022-12-20T08:19:49;100815.66;;;9.07;76.86
19736;BME280;32064;49.310;8.646;2022-12-20T08:22:19;100808.03;;;9.02;77.21
19736;BME280;32064;49.310;8.646;2022-12-20T08:24:45;100800.81;;;9.06;77.36
19736;BME280;32064;49.310;8.646;2022-12-20T08:27:10;100798.69;;;9.12;76.75
19736;BME280;32064;49.310;8.646;2022-12-20T08:29:36;100801.97;;;9.16;76.76
19736;BME280;32064;49.310;8.646;2022-12-20T08:32:01;100799.19;;;9.19;76.44
19736;BME280;32064;49.310;8.646;2022-12-20T08:34:27;100791.47;;;9.16;76.51
19736;BME280;32064;49.310;8.646;2022-12-20T08:36:52;100784.28;;;9.19;76.78
19736;BME280;32064;49.310;8.646;2022-12-20T08:39:17;100791.06;;;9.24;76.29
19736;BME280;32064;49.310;8.646;2022-12-20T08:41:43;100788.41;;;9.24;76.60
19736;BME280;32064;49.310;8.646;2022-12-20T08:44:08;100784.31;;;9.34;76.87
19736;BME280;32064;49.310;8.646;2022-12-20T08:46:35;100780.94;;;9.32;76.63
19736;BME280;32064;49.310;8.646;2022-12-20T08:49:02;100789.03;;;9.43;75.84
19736;BME280;32064;49.310;8.646;2022-12-20T08:51:27;100792.41;;;9.45;75.67
19736;BME280;32064;49.310;8.646;2022-12-20T08:53:53;100790.53;;;9.47;76.54
19736;BME280;32064;49.310;8.646;2022-12-20T08:56:18;100783.88;;;9.56;75.37
19736;BME280;32064;49.310;8.646;2022-12-20T08:58:45;100785.31;;;9.61;75.35
19736;BME280;32064;49.310;8.646;2022-12-20T09:01:14;100778.25;;;9.62;76.31
19736;BME280;32064;49.310;8.646;2022-12-20T09:03:39;100775.25;;;9.68;75.14
19736;BME280;32064;49.310;8.646;2022-12-20T09:06:07;100776.41;;;9.78;75.43
19736;BME280;32064;49.310;8.646;2022-12-20T09:08:34;100772.84;;;9.79;74.85
19736;BME280;32064;49.310;8.646;2022-12-20T09:11:15;100770.13;;;9.81;75.16
19736;BME280;32064;49.310;8.646;2022-12-20T09:13:42;100771.44;;;9.88;74.90
19736;BME280;32064;49.310;8.646;2022-12-20T09:16:08;100764.69;;;9.98;74.20
19736;BME280;32064;49.310;8.646;2022-12-20T09:18:34;100787.09;;;10.04;75.01
19736;BME280;32064;49.310;8.646;2022-12-20T09:21:01;100783.56;;;10.05;74.20
19736;BME280;32064;49.310;8.646;2022-12-20T09:23:28;100780.63;;;10.09;74.57
19736;BME280;32064;49.310;8.646;2022-12-20T09:25:54;100781.28;;;10.13;74.09
19736;BME280;32064;49.310;8.646;2022-12-20T09:28:21;100781.44;;;10.24;74.71
19736;BME280;32064;49.310;8.646;2022-12-20T09:30:47;100765.44;;;10.29;74.15
19736;BME280;32064;49.310;8.646;2022-12-20T09:33:12;100772.16;;;10.33;73.72
19736;BME280;32064;49.310;8.646;2022-12-20T09:35:45;100764.28;;;10.33;72.91
19736;BME280;32064;49.310;8.646;2022-12-20T09:38:11;100768.88;;;10.44;72.92
19736;BME280;32064;49.310;8.646;2022-12-20T09:40:36;100765.50;;;10.42;74.40
19736;BME280;32064;49.310;8.646;2022-12-20T09:43:03;100766.03;;;10.47;73.56
19736;BME280;32064;49.310;8.646;2022-12-20T09:45:32;100768.00;;;10.57;73.02
19736;BME280;32064;49.310;8.646;2022-12-20T09:47:59;100762.53;;;10.61;72.40
19736;BME280;32064;49.310;8.646;2022-12-20T09:56:35;100764.63;;;10.83;72.58
19736;BME280;32064;49.310;8.646;2022-12-20T09:59:04;100762.53;;;10.88;71.50
19736;BME280;32064;49.310;8.646;2022-12-20T10:01:33;100758.09;;;10.88;71.37
19736;BME280;32064;49.310;8.646;2022-12-20T10:04:02;100758.94;;;10.89;72.62
19736;BME280;32064;49.310;8.646;2022-12-20T10:06:44;100743.56;;;10.83;72.08
19736;BME280;32064;49.310;8.646;2022-12-20T10:15:11;100741.13;;;10.79;72.71
19736;BME280;32064;49.310;8.646;2022-12-20T10:22:55;100727.84;;;10.68;71.97
19736;BME280;32064;49.310;8.646;2022-12-20T10:25:29;100727.00;;;10.68;71.74
19736;BME280;32064;49.310;8.646;2022-12-20T10:27:56;100722.13;;;10.62;72.71
19736;BME280;32064;49.310;8.646;2022-12-20T10:30:24;100714.78;;;10.67;70.84
19736;BME280;32064;49.310;8.646;2022-12-20T10:32:52;100714.41;;;10.73;72.56
19736;BME280;32064;49.310;8.646;2022-12-20T10:35:25;100725.97;;;10.70;70.62
19736;BME280;32064;49.310;8.646;2022-12-20T10:38:05;100724.16;;;10.71;70.99
19736;BME280;32064;49.310;8.646;2022-12-20T10:43:17;100715.31;;;10.72;71.94
19736;BME280;32064;49.310;8.646;2022-12-20T10:45:55;100713.44;;;10.87;72.40
19736;BME280;32064;49.310;8.646;2022-12-20T10:48:25;100711.56;;;10.89;70.82
19736;BME280;32064;49.310;8.646;2022-12-20T10:51:02;100705.13;;;10.80;69.77
19736;BME280;32064;49.310;8.646;2022-12-20T10:53:30;100700.97;;;10.90;71.17
19736;BME280;32064;49.310;8.646;2022-12-20T10:56:32;100700.38;;;10.72;70.89
19736;BME280;32064;49.310;8.646;2022-12-20T10:59:00;100695.66;;;10.77;71.88
19736;BME280;32064;49.310;8.646;2022-12-20T11:01:32;100693.84;;;10.78;72.06
19736;BME280;32064;49.310;8.646;2022-12-20T11:04:20;100690.84;;;10.84;71.61
19736;BME280;32064;49.310;8.646;2022-12-20T11:06:49;100675.97;;;10.83;72.18
19736;BME280;32064;49.310;8.646;2022-12-20T11:12:13;100666.81;;;10.89;71.69
19736;BME280;32064;49.310;8.646;2022-12-20T11:14:40;100657.13;;;10.89;70.10
19736;BME280;32064;49.310;8.646;2022-12-20T11:19:57;100655.16;;;10.93;72.20
19736;BME280;32064;49.310;8.646;2022-12-20T11:42:11;100616.19;;;10.98;71.90
19736;BME280;32064;49.310;8.646;2022-12-20T11:53:04;100638.94;;;11.12;70.17
19736;BME280;32064;49.310;8.646;2022-12-20T11:55:35;100632.53;;;11.16;71.71
19736;BME280;32064;49.310;8.646;2022-12-20T11:58:03;100633.59;;;11.13;71.92
19736;BME280;32064;49.310;8.646;2022-12-20T12:00:35;100617.56;;;11.16;70.71
19736;BME280;32064;49.310;8.646;2022-12-20T12:03:31;100618.41;;;11.17;71.33
19736;BME280;32064;49.310;8.646;2022-12-20T12:06:21;100611.34;;;11.17;70.72
19736;BME280;32064;49.310;8.646;2022-12-20T12:08:54;100611.13;;;11.20;71.87
19736;BME280;32064;49.310;8.646;2022-12-20T12:11:23;100605.25;;;11.30;70.14
19736;BME280;32064;49.310;8.646;2022-12-20T12:13:51;100586.47;;;11.34;71.13
19736;BME280;32064;49.310;8.646;2022-12-20T12:16:27;100582.03;;;11.35;69.60
19736;BME280;32064;49.310;8.646;2022-12-20T12:18:57;100582.25;;;11.44;70.99
19736;BME280;32064;49.310;8.646;2022-12-20T12:21:39;100582.97;;;11.46;70.42
19736;BME280;32064;49.310;8.646;2022-12-20T12:24:22;100590.97;;;11.45;69.78
19736;BME280;32064;49.310;8.646;2022-12-20T12:26:50;100584.34;;;11.52;70.77
19736;BME280;32064;49.310;8.646;2022-12-20T12:29:17;100587.25;;;11.60;71.21
19736;BME280;32064;49.310;8.646;2022-12-20T12:32:01;100584.22;;;11.54;70.94
19736;BME280;32064;49.310;8.646;2022-12-20T12:37:34;100593.41;;;11.48;69.08
19736;BME280;32064;49.310;8.646;2022-12-20T12:42:45;100582.31;;;11.56;71.02
19736;BME280;32064;49.310;8.646;2022-12-20T12:46:15;100560.41;;;11.55;70.30
19736;BME280;32064;49.310;8.646;2022-12-20T12:48:23;100548.16;;;11.54;69.56
19736;BME280;32064;49.310;8.646;2022-12-20T12:50:53;100538.66;;;11.64;69.35
19736;BME280;32064;49.310;8.646;2022-12-20T12:53:42;100525.34;;;11.66;70.27
19736;BME280;32064;49.310;8.646;2022-12-20T13:04:19;100537.66;;;11.78;68.85
19736;BME280;32064;49.310;8.646;2022-12-20T13:09:36;100543.09;;;11.64;68.63
19736;BME280;32064;49.310;8.646;2022-12-20T13:17:58;100523.47;;;11.68;69.03
19736;BME280;32064;49.310;8.646;2022-12-20T13:20:32;100522.72;;;11.66;69.05
19736;BME280;32064;49.310;8.646;2022-12-20T13:25:34;100497.63;;;11.73;70.70
19736;BME280;32064;49.310;8.646;2022-12-20T13:31:28;100490.03;;;11.68;70.69
19736;BME280;32064;49.310;8.646;2022-12-20T13:33:44;100502.00;;;11.61;70.75
19736;BME280;32064;49.310;8.646;2022-12-20T13:38:49;100509.38;;;11.56;69.70
19736;BME280;32064;49.310;8.646;2022-12-20T13:43:48;100504.13;;;11.56;70.48
19736;BME280;32064;49.310;8.646;2022-12-20T13:46:46;100510.44;;;11.54;69.80
19736;BME280;32064;49.310;8.646;2022-12-20T13:49:21;100514.34;;;11.61;70.57
19736;BME280;32064;49.310;8.646;2022-12-20T13:51:48;100508.31;;;11.59;70.86
19736;BME280;32064;49.310;8.646;2022-12-20T13:54:17;100499.69;;;11.57;70.64
19736;BME280;32064;49.310;8.646;2022-12-20T13:59:24;100497.47;;;11.63;68.95
19736;BME280;32064;49.310;8.646;2022-12-20T14:02:03;100498.16;;;11.65;70.62
19736;BME280;32064;49.310;8.646;2022-12-20T14:04:40;100500.41;;;11.59;69.39
19736;BME280;32064;49.310;8.646;2022-12-20T14:07:09;100506.69;;;11.69;68.55
19736;BME280;32064;49.310;8.646;2022-12-20T14:09:37;100507.53;;;11.69;69.80
19736;BME280;32064;49.310;8.646;2022-12-20T14:12:13;100514.81;;;11.66;70.56
19736;BME280;32064;49.310;8.646;2022-12-20T14:14:47;100510.63;;;11.63;70.00
19736;BME280;32064;49.310;8.646;2022-12-20T14:19:39;100502.50;;;11.66;69.31
19736;BME280;32064;49.310;8.646;2022-12-20T14:22:06;100502.22;;;11.58;69.77
19736;BME280;32064;49.310;8.646;2022-12-20T14:24:32;100487.75;;;11.64;69.64
19736;BME280;32064;49.310;8.646;2022-12-20T14:26:58;100489.19;;;11.68;70.37
19736;BME280;32064;49.310;8.646;2022-12-20T14:29:28;100485.59;;;11.69;69.54
19736;BME280;32064;49.310;8.646;2022-12-20T14:31:55;100483.94;;;11.68;69.13
19736;BME280;32064;49.310;8.646;2022-12-20T14:34:27;100483.19;;;11.66;68.28
19736;BME280;32064;49.310;8.646;2022-12-20T14:37:32;100484.59;;;11.59;68.94
19736;BME280;32064;49.310;8.646;2022-12-20T14:42:35;100474.13;;;11.70;69.85
19736;BME280;32064;49.310;8.646;2022-12-20T14:45:16;100477.69;;;11.69;68.60
19736;BME280;32064;49.310;8.646;2022-12-20T14:48:04;100484.84;;;11.56;69.14
19736;BME280;32064;49.310;8.646;2022-12-20T14:50:36;100469.84;;;11.56;70.69
19736;BME280;32064;49.310;8.646;2022-12-20T14:53:03;100468.47;;;11.63;69.84